Webcam

2022/01/26 09:50 EBBR 260950Z 27007KT 3400 BR BKN009 BKN014 02/00 Q1034 NOSIG

Webcam

--- Refresh now ---